SBOSBO BLL / EKBI
Speedbird OnlineSpeedbird Online BLL / EKBI

Billund Airport
08:16 11°C

Location Billund, Denmark
Latitude: 55.7402992249
Longitude: 9.15178012848
Web Airport Website | Wikipedia
Altitude 75 Meter / 247 Feet
Distance 758 KM / 471 Miles
from London.
Time Zone UTC +2 hours (Europe/Copenhagen)
Codes IATA: BLL
ICAO: EKBI
Currency £1 equals DKK 8.52
Runways
RunwayLength (m)Surface
093100Asphalt
273100Asphalt
Radio
TypeDescriptionFrequency
APPAPP127.575
ATISATIS118.775
MISCCARGO HANDLING122.075
MISCHANDLING130.85
OPSARPT OFFICE131.5
TWRTWR119
Live ATC
METAR EKBI 060550Z AUTO 24009KT 9999 BKN032/// 11/09 Q1014
TAF TAF EKBI 060505Z 0606/0706 26016KT 9999 BKN015 TEMPO 0606/0624 24015G25KT TEMPO 0700/0706 SHRA BKN012 SCT020CB
Weather As Of 06 Oct 2022 08:16
Description Broken clouds
Wind 17 km/h from South-West (240°)
Cloud Cover 75%
Precipitation Rain: none, Snow: none
Sunrise 07:35
Sunset 18:47
Lounges King Amlet Lounge , Departures Area
Rotations During the last 90 days there were
73 flights from LHR
19 flights from LCY
71 flights to LHR


© 2017-2022 Speedbird Online